Terminal Aerodrome Forecast
Issued by NWS

Home | Current Version | Previous Version | Text Only | Print | Product List | Glossary On
Versions: 1 2 3 4 5 6 7 8 9 10 11 12 13 14 15 16 17 18 19 20 21
587
FTUS43 KPAH 201259 AAA
TAFCGI
TAF AMD
KCGI 201259Z 2013/2112 09003KT P6SM BKN200
     FM201400 14006KT P6SM BKN250
     FM201700 16009G15KT P6SM SCT030 BKN200
     FM210400 18004KT P6SM BKN050
     FM210900 18003KT 6SM -SHRA BR BKN015=

USA.gov is the U.S. government's official web portal to all federal, state and local government web resources and services.